Bristol, Nebraska
Current Conditions -  °F | °C
As of 9:35 PM on Sunday 21 Dec 2014 (Local Time) from KEAR Reporting Station
Overcast Overcast  
Wind Chill: 30°   Ceiling: 600
Heat Index: 39°   Visibility: 8mi
Dew Point: 37°   Wind: 20mph
Humidity: 93%   Direction: 160°SSE
Pressure: 29.54"   Gusts: 24mph
Location:  41.0941°N, 98.8928°W
Report Text: KEAR 220335Z 16017G21KT 8SM OVC006 04/03 A2954 RMK AO1
Loading
Personal Weather Stations






























Interactive Weather Map New forecast layout! Learn more

10-Day Weather Forecast

Advertisements
Track Severe Weather on mobile